CZ-0148 weather

Veselí
Veselí u Přelouče, Pardubice Region, Czechia

Public forecast

Using degrees Celsius for public forecast. Weather courtesy of forecast.io.

METAR (pilot weather report)

Closest report is Pardubice Airport, 4.7 nm (8.7 km) E. Retrieved 2019/09/20 17:00 UTC (49 minutes ago):

LKPD 201700Z 23003KT CAVOK 12/04 Q1026 NOSIG RMK BLU BLU

TAF (pilot weather forecast)

Closest forecast is Pardubice Airport, 4.7 nm (8.7 km) E. Retrieved 2019/09/20 12:06 UTC (6 hours ago):

TAF LKPD 201100Z 2012/2112 30008KT CAVOK TEMPO 2012/2015 SCT045 BECMG 2023/2101 09004KT